sensor_id;sensor_type;location;lat;lon;timestamp;temperature;humidity
19242;DHT22;9755;47.790;9.620;2023-04-08T00:00:06;6.30;99.90
19242;DHT22;9755;47.790;9.620;2023-04-08T00:02:34;6.40;99.90
19242;DHT22;9755;47.790;9.620;2023-04-08T00:05:07;6.30;99.90
19242;DHT22;9755;47.790;9.620;2023-04-08T00:07:35;6.30;99.90
19242;DHT22;9755;47.790;9.620;2023-04-08T00:10:04;6.30;99.90
19242;DHT22;9755;47.790;9.620;2023-04-08T00:12:32;6.30;99.90
19242;DHT22;9755;47.790;9.620;2023-04-08T00:14:59;6.30;99.90
19242;DHT22;9755;47.790;9.620;2023-04-08T00:17:26;6.30;99.90
19242;DHT22;9755;47.790;9.620;2023-04-08T00:19:53;6.30;99.90
19242;DHT22;9755;47.790;9.620;2023-04-08T00:22:21;6.30;99.90
19242;DHT22;9755;47.790;9.620;2023-04-08T00:24:48;6.20;99.90
19242;DHT22;9755;47.790;9.620;2023-04-08T00:27:16;6.20;99.90
19242;DHT22;9755;47.790;9.620;2023-04-08T00:29:43;6.20;99.90
19242;DHT22;9755;47.790;9.620;2023-04-08T00:32:11;6.20;99.90
19242;DHT22;9755;47.790;9.620;2023-04-08T00:34:38;6.20;99.90
19242;DHT22;9755;47.790;9.620;2023-04-08T00:37:05;6.20;99.90
19242;DHT22;9755;47.790;9.620;2023-04-08T00:39:32;6.20;99.90
19242;DHT22;9755;47.790;9.620;2023-04-08T00:41:59;6.20;99.90
19242;DHT22;9755;47.790;9.620;2023-04-08T00:44:27;6.10;99.90
19242;DHT22;9755;47.790;9.620;2023-04-08T00:46:54;6.20;99.90
19242;DHT22;9755;47.790;9.620;2023-04-08T00:49:22;6.10;99.90
19242;DHT22;9755;47.790;9.620;2023-04-08T00:51:49;6.10;99.90
19242;DHT22;9755;47.790;9.620;2023-04-08T00:54:16;6.10;99.90
19242;DHT22;9755;47.790;9.620;2023-04-08T00:56:44;6.10;99.90
19242;DHT22;9755;47.790;9.620;2023-04-08T00:59:11;6.10;99.90
19242;DHT22;9755;47.790;9.620;2023-04-08T01:01:43;6.00;99.90
19242;DHT22;9755;47.790;9.620;2023-04-08T01:04:29;6.00;99.90
19242;DHT22;9755;47.790;9.620;2023-04-08T01:07:12;5.90;99.90
19242;DHT22;9755;47.790;9.620;2023-04-08T01:09:44;5.90;99.90
19242;DHT22;9755;47.790;9.620;2023-04-08T01:12:17;5.90;99.90
19242;DHT22;9755;47.790;9.620;2023-04-08T01:14:46;5.90;99.90
19242;DHT22;9755;47.790;9.620;2023-04-08T01:17:16;5.80;99.90
19242;DHT22;9755;47.790;9.620;2023-04-08T01:19:45;5.80;99.90
19242;DHT22;9755;47.790;9.620;2023-04-08T01:22:23;5.80;99.90
19242;DHT22;9755;47.790;9.620;2023-04-08T01:24:58;5.90;99.90
19242;DHT22;9755;47.790;9.620;2023-04-08T01:27:30;5.90;99.90
19242;DHT22;9755;47.790;9.620;2023-04-08T01:29:58;5.90;99.90
19242;DHT22;9755;47.790;9.620;2023-04-08T01:32:28;5.90;99.90
19242;DHT22;9755;47.790;9.620;2023-04-08T01:34:56;5.90;99.90
19242;DHT22;9755;47.790;9.620;2023-04-08T01:37:24;5.90;99.90
19242;DHT22;9755;47.790;9.620;2023-04-08T01:39:54;5.90;99.90
19242;DHT22;9755;47.790;9.620;2023-04-08T01:42:23;5.90;99.90
19242;DHT22;9755;47.790;9.620;2023-04-08T01:44:55;6.00;99.90
19242;DHT22;9755;47.790;9.620;2023-04-08T01:47:22;6.00;99.90
19242;DHT22;9755;47.790;9.620;2023-04-08T01:49:51;5.90;99.90
19242;DHT22;9755;47.790;9.620;2023-04-08T01:52:20;5.90;99.90
19242;DHT22;9755;47.790;9.620;2023-04-08T01:54:51;5.90;99.90
19242;DHT22;9755;47.790;9.620;2023-04-08T01:57:25;5.90;99.90
19242;DHT22;9755;47.790;9.620;2023-04-08T01:59:58;5.90;99.90
19242;DHT22;9755;47.790;9.620;2023-04-08T02:02:26;5.90;99.90
19242;DHT22;9755;47.790;9.620;2023-04-08T02:04:54;6.00;99.90
19242;DHT22;9755;47.790;9.620;2023-04-08T02:07:21;6.00;99.90
19242;DHT22;9755;47.790;9.620;2023-04-08T02:09:49;6.00;99.90
19242;DHT22;9755;47.790;9.620;2023-04-08T02:12:16;6.00;99.90
19242;DHT22;9755;47.790;9.620;2023-04-08T02:14:43;6.00;99.90
19242;DHT22;9755;47.790;9.620;2023-04-08T02:17:18;6.00;99.90
19242;DHT22;9755;47.790;9.620;2023-04-08T02:19:51;6.00;99.90
19242;DHT22;9755;47.790;9.620;2023-04-08T02:22:28;6.00;99.90
19242;DHT22;9755;47.790;9.620;2023-04-08T02:24:57;6.00;99.90
19242;DHT22;9755;47.790;9.620;2023-04-08T02:27:26;6.00;99.90
19242;DHT22;9755;47.790;9.620;2023-04-08T02:29:55;6.00;99.90
19242;DHT22;9755;47.790;9.620;2023-04-08T02:32:25;6.00;99.90
19242;DHT22;9755;47.790;9.620;2023-04-08T02:34:54;6.00;99.90
19242;DHT22;9755;47.790;9.620;2023-04-08T02:37:22;6.00;99.90
19242;DHT22;9755;47.790;9.620;2023-04-08T02:39:49;5.90;99.90
19242;DHT22;9755;47.790;9.620;2023-04-08T02:42:16;5.90;99.90
19242;DHT22;9755;47.790;9.620;2023-04-08T02:44:43;5.90;99.90
19242;DHT22;9755;47.790;9.620;2023-04-08T02:47:10;5.90;99.90
19242;DHT22;9755;47.790;9.620;2023-04-08T02:49:38;5.90;99.90
19242;DHT22;9755;47.790;9.620;2023-04-08T02:52:05;5.80;99.90
19242;DHT22;9755;47.790;9.620;2023-04-08T02:54:32;5.80;99.90
19242;DHT22;9755;47.790;9.620;2023-04-08T02:57:00;5.90;99.90
19242;DHT22;9755;47.790;9.620;2023-04-08T02:59:27;5.80;99.90
19242;DHT22;9755;47.790;9.620;2023-04-08T03:01:55;5.80;99.90
19242;DHT22;9755;47.790;9.620;2023-04-08T03:04:22;5.80;99.90
19242;DHT22;9755;47.790;9.620;2023-04-08T03:06:50;5.80;99.90
19242;DHT22;9755;47.790;9.620;2023-04-08T03:09:17;5.80;99.90
19242;DHT22;9755;47.790;9.620;2023-04-08T03:11:44;5.80;99.90
19242;DHT22;9755;47.790;9.620;2023-04-08T03:14:17;5.80;99.90
19242;DHT22;9755;47.790;9.620;2023-04-08T03:16:44;5.80;99.90
19242;DHT22;9755;47.790;9.620;2023-04-08T03:19:11;5.80;99.90
19242;DHT22;9755;47.790;9.620;2023-04-08T03:21:38;5.80;99.90
19242;DHT22;9755;47.790;9.620;2023-04-08T03:24:06;5.80;99.90
19242;DHT22;9755;47.790;9.620;2023-04-08T03:26:33;5.80;99.90
19242;DHT22;9755;47.790;9.620;2023-04-08T03:29:00;5.80;99.90
19242;DHT22;9755;47.790;9.620;2023-04-08T03:31:27;5.80;99.90
19242;DHT22;9755;47.790;9.620;2023-04-08T03:33:54;5.80;99.90
19242;DHT22;9755;47.790;9.620;2023-04-08T03:36:23;5.80;99.90
19242;DHT22;9755;47.790;9.620;2023-04-08T03:38:51;5.80;99.90
19242;DHT22;9755;47.790;9.620;2023-04-08T03:41:19;5.80;99.90
19242;DHT22;9755;47.790;9.620;2023-04-08T03:43:46;5.80;99.90
19242;DHT22;9755;47.790;9.620;2023-04-08T03:46:13;5.90;99.90
19242;DHT22;9755;47.790;9.620;2023-04-08T03:48:40;5.80;99.90
19242;DHT22;9755;47.790;9.620;2023-04-08T03:51:07;5.80;99.90
19242;DHT22;9755;47.790;9.620;2023-04-08T03:53:34;5.90;99.90
19242;DHT22;9755;47.790;9.620;2023-04-08T03:56:01;5.90;99.90
19242;DHT22;9755;47.790;9.620;2023-04-08T03:58:30;5.80;99.90
19242;DHT22;9755;47.790;9.620;2023-04-08T04:00:57;5.80;99.90
19242;DHT22;9755;47.790;9.620;2023-04-08T04:03:25;5.80;99.90
19242;DHT22;9755;47.790;9.620;2023-04-08T04:05:52;5.80;99.90
19242;DHT22;9755;47.790;9.620;2023-04-08T04:08:19;5.90;99.90
19242;DHT22;9755;47.790;9.620;2023-04-08T04:10:46;5.90;99.90
19242;DHT22;9755;47.790;9.620;2023-04-08T04:13:13;5.90;99.90
19242;DHT22;9755;47.790;9.620;2023-04-08T04:15:41;5.90;99.90
19242;DHT22;9755;47.790;9.620;2023-04-08T04:18:08;5.90;99.90
19242;DHT22;9755;47.790;9.620;2023-04-08T04:20:38;5.90;99.90
19242;DHT22;9755;47.790;9.620;2023-04-08T04:23:06;5.90;99.90
19242;DHT22;9755;47.790;9.620;2023-04-08T04:25:33;5.90;99.90
19242;DHT22;9755;47.790;9.620;2023-04-08T04:28:00;5.90;99.90
19242;DHT22;9755;47.790;9.620;2023-04-08T04:30:28;5.90;99.90
19242;DHT22;9755;47.790;9.620;2023-04-08T04:32:56;5.90;99.90
19242;DHT22;9755;47.790;9.620;2023-04-08T04:35:23;5.90;99.90
19242;DHT22;9755;47.790;9.620;2023-04-08T04:37:50;5.90;99.90
19242;DHT22;9755;47.790;9.620;2023-04-08T04:40:18;5.90;99.90
19242;DHT22;9755;47.790;9.620;2023-04-08T04:42:45;5.90;99.90
19242;DHT22;9755;47.790;9.620;2023-04-08T04:45:12;5.90;99.90
19242;DHT22;9755;47.790;9.620;2023-04-08T04:47:40;6.00;99.90
19242;DHT22;9755;47.790;9.620;2023-04-08T04:50:09;6.00;99.90
19242;DHT22;9755;47.790;9.620;2023-04-08T04:52:36;6.00;99.90
19242;DHT22;9755;47.790;9.620;2023-04-08T04:55:04;5.90;99.90
19242;DHT22;9755;47.790;9.620;2023-04-08T04:57:31;5.90;99.90
19242;DHT22;9755;47.790;9.620;2023-04-08T04:59:58;5.90;99.90
19242;DHT22;9755;47.790;9.620;2023-04-08T05:02:25;5.90;99.90
19242;DHT22;9755;47.790;9.620;2023-04-08T05:04:52;5.90;99.90
19242;DHT22;9755;47.790;9.620;2023-04-08T05:07:21;5.90;99.90
19242;DHT22;9755;47.790;9.620;2023-04-08T05:09:48;5.90;99.90
19242;DHT22;9755;47.790;9.620;2023-04-08T05:12:15;5.90;99.90
19242;DHT22;9755;47.790;9.620;2023-04-08T05:14:42;5.90;99.90
19242;DHT22;9755;47.790;9.620;2023-04-08T05:17:10;5.90;99.90
19242;DHT22;9755;47.790;9.620;2023-04-08T05:19:37;5.90;99.90
19242;DHT22;9755;47.790;9.620;2023-04-08T05:22:05;5.90;99.90
19242;DHT22;9755;47.790;9.620;2023-04-08T05:24:33;5.90;99.90
19242;DHT22;9755;47.790;9.620;2023-04-08T05:27:01;5.90;99.90
19242;DHT22;9755;47.790;9.620;2023-04-08T05:29:28;6.00;99.90
19242;DHT22;9755;47.790;9.620;2023-04-08T05:31:55;6.00;99.90
19242;DHT22;9755;47.790;9.620;2023-04-08T05:34:22;6.00;99.90
19242;DHT22;9755;47.790;9.620;2023-04-08T05:36:49;6.00;99.90
19242;DHT22;9755;47.790;9.620;2023-04-08T05:39:17;6.00;99.90
19242;DHT22;9755;47.790;9.620;2023-04-08T05:41:45;6.00;99.90
19242;DHT22;9755;47.790;9.620;2023-04-08T05:44:12;6.00;99.90
19242;DHT22;9755;47.790;9.620;2023-04-08T05:46:40;6.00;99.90
19242;DHT22;9755;47.790;9.620;2023-04-08T05:49:07;6.10;99.90
19242;DHT22;9755;47.790;9.620;2023-04-08T05:51:34;6.10;99.90
19242;DHT22;9755;47.790;9.620;2023-04-08T05:54:01;6.10;99.90
19242;DHT22;9755;47.790;9.620;2023-04-08T05:56:28;6.10;99.90
19242;DHT22;9755;47.790;9.620;2023-04-08T05:58:58;6.10;99.90
19242;DHT22;9755;47.790;9.620;2023-04-08T06:01:25;6.20;99.90
19242;DHT22;9755;47.790;9.620;2023-04-08T06:03:52;6.10;99.90
19242;DHT22;9755;47.790;9.620;2023-04-08T06:06:20;6.10;99.90
19242;DHT22;9755;47.790;9.620;2023-04-08T06:08:47;6.10;99.90
19242;DHT22;9755;47.790;9.620;2023-04-08T06:11:14;6.10;99.90
19242;DHT22;9755;47.790;9.620;2023-04-08T06:13:41;6.20;99.90
19242;DHT22;9755;47.790;9.620;2023-04-08T06:16:14;6.20;99.90
19242;DHT22;9755;47.790;9.620;2023-04-08T06:18:42;6.20;99.90
19242;DHT22;9755;47.790;9.620;2023-04-08T06:21:09;6.30;99.90
19242;DHT22;9755;47.790;9.620;2023-04-08T06:23:36;6.20;99.90
19242;DHT22;9755;47.790;9.620;2023-04-08T06:26:03;6.20;99.90
19242;DHT22;9755;47.790;9.620;2023-04-08T06:28:30;6.10;99.90
19242;DHT22;9755;47.790;9.620;2023-04-08T06:30:58;6.10;99.90
19242;DHT22;9755;47.790;9.620;2023-04-08T06:33:27;6.10;99.90
19242;DHT22;9755;47.790;9.620;2023-04-08T06:36:01;6.10;99.90
19242;DHT22;9755;47.790;9.620;2023-04-08T06:38:29;6.10;99.90
19242;DHT22;9755;47.790;9.620;2023-04-08T06:41:00;6.10;99.90
19242;DHT22;9755;47.790;9.620;2023-04-08T06:43:27;6.10;99.90
19242;DHT22;9755;47.790;9.620;2023-04-08T06:45:55;6.20;99.90
19242;DHT22;9755;47.790;9.620;2023-04-08T06:48:23;6.20;99.90
19242;DHT22;9755;47.790;9.620;2023-04-08T06:50:54;6.10;99.90
19242;DHT22;9755;47.790;9.620;2023-04-08T06:53:22;6.10;99.90
19242;DHT22;9755;47.790;9.620;2023-04-08T06:55:50;6.10;99.90
19242;DHT22;9755;47.790;9.620;2023-04-08T06:58:17;6.10;99.90
19242;DHT22;9755;47.790;9.620;2023-04-08T07:00:45;6.00;99.90
19242;DHT22;9755;47.790;9.620;2023-04-08T07:03:12;6.00;99.90
19242;DHT22;9755;47.790;9.620;2023-04-08T07:05:39;5.90;99.90
19242;DHT22;9755;47.790;9.620;2023-04-08T07:08:08;5.80;99.90
19242;DHT22;9755;47.790;9.620;2023-04-08T07:10:35;5.80;99.90
19242;DHT22;9755;47.790;9.620;2023-04-08T07:13:02;5.70;99.90
19242;DHT22;9755;47.790;9.620;2023-04-08T07:15:29;5.80;99.90
19242;DHT22;9755;47.790;9.620;2023-04-08T07:17:56;5.90;99.90
19242;DHT22;9755;47.790;9.620;2023-04-08T07:20:24;5.90;99.90
19242;DHT22;9755;47.790;9.620;2023-04-08T07:22:52;6.00;99.90
19242;DHT22;9755;47.790;9.620;2023-04-08T07:25:20;6.00;99.90
19242;DHT22;9755;47.790;9.620;2023-04-08T07:27:47;6.00;99.90
19242;DHT22;9755;47.790;9.620;2023-04-08T07:30:14;6.00;99.90
19242;DHT22;9755;47.790;9.620;2023-04-08T07:32:41;6.10;99.90
19242;DHT22;9755;47.790;9.620;2023-04-08T07:35:08;6.10;99.90
19242;DHT22;9755;47.790;9.620;2023-04-08T07:37:35;6.00;99.90
19242;DHT22;9755;47.790;9.620;2023-04-08T07:40:03;6.00;99.90
19242;DHT22;9755;47.790;9.620;2023-04-08T07:42:31;6.00;99.90
19242;DHT22;9755;47.790;9.620;2023-04-08T07:44:58;6.10;99.90
19242;DHT22;9755;47.790;9.620;2023-04-08T07:47:25;6.20;99.90
19242;DHT22;9755;47.790;9.620;2023-04-08T07:49:52;6.20;99.90
19242;DHT22;9755;47.790;9.620;2023-04-08T07:52:20;6.30;99.90
19242;DHT22;9755;47.790;9.620;2023-04-08T07:54:47;6.40;99.90
19242;DHT22;9755;47.790;9.620;2023-04-08T07:57:14;6.60;99.90
19242;DHT22;9755;47.790;9.620;2023-04-08T07:59:42;6.70;99.90
19242;DHT22;9755;47.790;9.620;2023-04-08T08:02:10;6.70;99.90
19242;DHT22;9755;47.790;9.620;2023-04-08T08:04:37;6.60;99.90
19242;DHT22;9755;47.790;9.620;2023-04-08T08:07:04;6.80;99.90
19242;DHT22;9755;47.790;9.620;2023-04-08T08:09:31;7.00;99.90
19242;DHT22;9755;47.790;9.620;2023-04-08T08:11:58;7.20;99.90
19242;DHT22;9755;47.790;9.620;2023-04-08T08:14:25;7.20;99.90
19242;DHT22;9755;47.790;9.620;2023-04-08T08:16:53;7.30;99.90
19242;DHT22;9755;47.790;9.620;2023-04-08T08:19:21;7.40;99.90
19242;DHT22;9755;47.790;9.620;2023-04-08T08:21:48;7.60;99.90
19242;DHT22;9755;47.790;9.620;2023-04-08T08:24:16;7.70;99.90
19242;DHT22;9755;47.790;9.620;2023-04-08T08:26:43;8.00;99.90
19242;DHT22;9755;47.790;9.620;2023-04-08T08:29:11;7.70;99.90
19242;DHT22;9755;47.790;9.620;2023-04-08T08:31:38;7.80;99.90
19242;DHT22;9755;47.790;9.620;2023-04-08T08:34:07;8.10;99.90
19242;DHT22;9755;47.790;9.620;2023-04-08T08:36:34;8.30;99.90
19242;DHT22;9755;47.790;9.620;2023-04-08T08:39:01;8.40;99.90
19242;DHT22;9755;47.790;9.620;2023-04-08T08:41:32;8.30;99.90
19242;DHT22;9755;47.790;9.620;2023-04-08T08:44:01;8.20;99.90
19242;DHT22;9755;47.790;9.620;2023-04-08T08:46:29;8.40;99.90
19242;DHT22;9755;47.790;9.620;2023-04-08T08:48:56;8.60;99.90
19242;DHT22;9755;47.790;9.620;2023-04-08T08:51:24;8.60;99.90
19242;DHT22;9755;47.790;9.620;2023-04-08T08:53:53;8.60;99.90
19242;DHT22;9755;47.790;9.620;2023-04-08T08:56:20;8.50;99.90
19242;DHT22;9755;47.790;9.620;2023-04-08T08:58:47;8.60;99.90
19242;DHT22;9755;47.790;9.620;2023-04-08T09:01:31;8.70;99.90
19242;DHT22;9755;47.790;9.620;2023-04-08T09:04:10;8.80;99.90
19242;DHT22;9755;47.790;9.620;2023-04-08T09:06:39;9.10;99.90
19242;DHT22;9755;47.790;9.620;2023-04-08T09:09:06;9.20;99.90
19242;DHT22;9755;47.790;9.620;2023-04-08T09:11:36;8.60;99.90
19242;DHT22;9755;47.790;9.620;2023-04-08T09:14:04;8.70;99.90
19242;DHT22;9755;47.790;9.620;2023-04-08T09:16:32;8.70;99.90
19242;DHT22;9755;47.790;9.620;2023-04-08T09:19:10;8.40;99.90
19242;DHT22;9755;47.790;9.620;2023-04-08T09:21:39;8.40;99.90
19242;DHT22;9755;47.790;9.620;2023-04-08T09:24:07;8.40;99.90
19242;DHT22;9755;47.790;9.620;2023-04-08T09:26:35;8.30;99.90
19242;DHT22;9755;47.790;9.620;2023-04-08T09:29:04;8.20;99.90
19242;DHT22;9755;47.790;9.620;2023-04-08T09:31:32;8.10;99.90
19242;DHT22;9755;47.790;9.620;2023-04-08T09:34:09;8.00;99.90
19242;DHT22;9755;47.790;9.620;2023-04-08T09:36:37;8.00;99.90
19242;DHT22;9755;47.790;9.620;2023-04-08T09:39:05;8.10;99.90
19242;DHT22;9755;47.790;9.620;2023-04-08T09:41:34;7.90;99.90
19242;DHT22;9755;47.790;9.620;2023-04-08T09:44:04;7.90;99.90
19242;DHT22;9755;47.790;9.620;2023-04-08T09:46:35;7.80;99.90
19242;DHT22;9755;47.790;9.620;2023-04-08T09:49:05;7.70;99.90
19242;DHT22;9755;47.790;9.620;2023-04-08T09:51:39;7.60;99.90
19242;DHT22;9755;47.790;9.620;2023-04-08T09:54:12;7.60;99.90
19242;DHT22;9755;47.790;9.620;2023-04-08T09:56:44;7.60;99.90
19242;DHT22;9755;47.790;9.620;2023-04-08T09:59:16;7.60;99.90
19242;DHT22;9755;47.790;9.620;2023-04-08T10:01:51;7.60;99.90
19242;DHT22;9755;47.790;9.620;2023-04-08T10:04:20;7.60;99.90
19242;DHT22;9755;47.790;9.620;2023-04-08T10:06:53;7.60;99.90
19242;DHT22;9755;47.790;9.620;2023-04-08T10:09:25;7.70;99.90
19242;DHT22;9755;47.790;9.620;2023-04-08T10:11:54;7.90;99.90
19242;DHT22;9755;47.790;9.620;2023-04-08T10:14:21;8.00;99.90
19242;DHT22;9755;47.790;9.620;2023-04-08T10:16:48;8.20;99.90
19242;DHT22;9755;47.790;9.620;2023-04-08T10:19:36;8.30;99.90
19242;DHT22;9755;47.790;9.620;2023-04-08T10:22:47;8.40;99.90
19242;DHT22;9755;47.790;9.620;2023-04-08T10:25:34;8.70;99.90
19242;DHT22;9755;47.790;9.620;2023-04-08T10:28:24;8.80;99.90
19242;DHT22;9755;47.790;9.620;2023-04-08T10:30:52;8.80;99.90
19242;DHT22;9755;47.790;9.620;2023-04-08T10:33:22;8.90;99.90
19242;DHT22;9755;47.790;9.620;2023-04-08T10:35:52;9.00;99.90
19242;DHT22;9755;47.790;9.620;2023-04-08T10:38:20;9.30;99.90
19242;DHT22;9755;47.790;9.620;2023-04-08T10:40:48;9.50;99.90
19242;DHT22;9755;47.790;9.620;2023-04-08T10:43:16;9.60;99.90
19242;DHT22;9755;47.790;9.620;2023-04-08T10:45:43;9.70;99.90
19242;DHT22;9755;47.790;9.620;2023-04-08T10:48:16;9.90;99.90
19242;DHT22;9755;47.790;9.620;2023-04-08T10:50:43;10.10;99.90
19242;DHT22;9755;47.790;9.620;2023-04-08T10:53:11;10.50;99.90
19242;DHT22;9755;47.790;9.620;2023-04-08T10:55:38;10.60;99.90
19242;DHT22;9755;47.790;9.620;2023-04-08T10:58:07;10.60;99.90
19242;DHT22;9755;47.790;9.620;2023-04-08T11:00:36;10.20;99.90
19242;DHT22;9755;47.790;9.620;2023-04-08T11:03:04;10.30;99.90
19242;DHT22;9755;47.790;9.620;2023-04-08T11:05:32;10.30;99.90
19242;DHT22;9755;47.790;9.620;2023-04-08T11:07:59;10.20;99.90
19242;DHT22;9755;47.790;9.620;2023-04-08T11:10:27;10.20;99.90
19242;DHT22;9755;47.790;9.620;2023-04-08T11:12:54;10.40;99.90
19242;DHT22;9755;47.790;9.620;2023-04-08T11:15:23;10.20;99.90
19242;DHT22;9755;47.790;9.620;2023-04-08T11:17:51;10.20;99.90
19242;DHT22;9755;47.790;9.620;2023-04-08T11:20:18;10.10;99.90
19242;DHT22;9755;47.790;9.620;2023-04-08T11:22:48;10.00;99.90
19242;DHT22;9755;47.790;9.620;2023-04-08T11:25:16;9.90;99.90
19242;DHT22;9755;47.790;9.620;2023-04-08T11:27:43;9.50;99.90
19242;DHT22;9755;47.790;9.620;2023-04-08T11:30:10;9.30;99.90
19242;DHT22;9755;47.790;9.620;2023-04-08T11:32:39;9.40;99.90
19242;DHT22;9755;47.790;9.620;2023-04-08T11:35:06;9.50;99.90
19242;DHT22;9755;47.790;9.620;2023-04-08T11:37:37;9.40;99.90
19242;DHT22;9755;47.790;9.620;2023-04-08T11:40:08;9.80;99.90
19242;DHT22;9755;47.790;9.620;2023-04-08T11:42:36;9.80;99.90
19242;DHT22;9755;47.790;9.620;2023-04-08T11:45:10;9.60;99.90
19242;DHT22;9755;47.790;9.620;2023-04-08T11:47:39;9.60;99.90
19242;DHT22;9755;47.790;9.620;2023-04-08T11:50:07;9.50;99.90
19242;DHT22;9755;47.790;9.620;2023-04-08T11:52:41;9.60;99.90
19242;DHT22;9755;47.790;9.620;2023-04-08T11:55:09;9.60;99.90
19242;DHT22;9755;47.790;9.620;2023-04-08T11:57:36;9.60;99.90
19242;DHT22;9755;47.790;9.620;2023-04-08T12:00:04;9.40;99.90
19242;DHT22;9755;47.790;9.620;2023-04-08T12:02:32;9.40;99.90
19242;DHT22;9755;47.790;9.620;2023-04-08T12:05:00;9.20;99.90
19242;DHT22;9755;47.790;9.620;2023-04-08T12:07:28;9.10;99.90
19242;DHT22;9755;47.790;9.620;2023-04-08T12:09:55;9.10;99.90
19242;DHT22;9755;47.790;9.620;2023-04-08T12:12:22;9.10;99.90
19242;DHT22;9755;47.790;9.620;2023-04-08T12:14:49;8.90;99.90
19242;DHT22;9755;47.790;9.620;2023-04-08T12:17:16;8.90;99.90
19242;DHT22;9755;47.790;9.620;2023-04-08T12:19:43;9.00;99.90
19242;DHT22;9755;47.790;9.620;2023-04-08T12:22:12;8.90;99.90
19242;DHT22;9755;47.790;9.620;2023-04-08T12:24:39;8.80;99.90
19242;DHT22;9755;47.790;9.620;2023-04-08T12:27:06;9.10;99.90
19242;DHT22;9755;47.790;9.620;2023-04-08T12:29:33;9.30;99.90
19242;DHT22;9755;47.790;9.620;2023-04-08T12:32:00;9.60;99.90
19242;DHT22;9755;47.790;9.620;2023-04-08T12:34:29;9.70;99.90
19242;DHT22;9755;47.790;9.620;2023-04-08T12:36:56;9.80;99.90
19242;DHT22;9755;47.790;9.620;2023-04-08T12:39:24;9.60;99.90
19242;DHT22;9755;47.790;9.620;2023-04-08T12:41:51;9.60;99.90
19242;DHT22;9755;47.790;9.620;2023-04-08T12:44:18;9.60;99.90
19242;DHT22;9755;47.790;9.620;2023-04-08T12:46:46;9.70;99.90
19242;DHT22;9755;47.790;9.620;2023-04-08T12:49:13;9.70;99.90
19242;DHT22;9755;47.790;9.620;2023-04-08T12:51:40;9.70;99.90
19242;DHT22;9755;47.790;9.620;2023-04-08T12:54:07;9.70;99.90
19242;DHT22;9755;47.790;9.620;2023-04-08T12:56:35;9.60;99.90
19242;DHT22;9755;47.790;9.620;2023-04-08T12:59:03;9.60;99.90
19242;DHT22;9755;47.790;9.620;2023-04-08T13:01:30;9.90;99.90
19242;DHT22;9755;47.790;9.620;2023-04-08T13:03:57;9.80;99.90
19242;DHT22;9755;47.790;9.620;2023-04-08T13:06:24;9.70;99.90
19242;DHT22;9755;47.790;9.620;2023-04-08T13:08:52;9.80;99.90
19242;DHT22;9755;47.790;9.620;2023-04-08T13:11:19;9.90;99.90
19242;DHT22;9755;47.790;9.620;2023-04-08T13:13:48;10.20;99.90
19242;DHT22;9755;47.790;9.620;2023-04-08T13:16:15;10.30;99.90
19242;DHT22;9755;47.790;9.620;2023-04-08T13:18:42;10.50;99.90
19242;DHT22;9755;47.790;9.620;2023-04-08T13:21:09;10.50;99.90
19242;DHT22;9755;47.790;9.620;2023-04-08T13:23:36;10.30;99.90
19242;DHT22;9755;47.790;9.620;2023-04-08T13:26:03;10.30;99.90
19242;DHT22;9755;47.790;9.620;2023-04-08T13:28:31;10.00;99.90
19242;DHT22;9755;47.790;9.620;2023-04-08T13:30:59;9.80;99.90
19242;DHT22;9755;47.790;9.620;2023-04-08T13:33:26;9.50;99.90
19242;DHT22;9755;47.790;9.620;2023-04-08T13:35:53;9.10;99.90
19242;DHT22;9755;47.790;9.620;2023-04-08T13:38:21;9.10;99.90
19242;DHT22;9755;47.790;9.620;2023-04-08T13:40:48;9.20;99.90
19242;DHT22;9755;47.790;9.620;2023-04-08T13:43:15;9.10;99.90
19242;DHT22;9755;47.790;9.620;2023-04-08T13:45:42;9.30;99.90
19242;DHT22;9755;47.790;9.620;2023-04-08T13:48:10;9.80;99.90
19242;DHT22;9755;47.790;9.620;2023-04-08T13:50:38;9.90;99.90
19242;DHT22;9755;47.790;9.620;2023-04-08T13:53:06;10.00;99.90
19242;DHT22;9755;47.790;9.620;2023-04-08T13:55:33;10.00;99.90
19242;DHT22;9755;47.790;9.620;2023-04-08T13:58:00;10.20;99.90
19242;DHT22;9755;47.790;9.620;2023-04-08T14:00:28;10.10;99.90
19242;DHT22;9755;47.790;9.620;2023-04-08T14:02:55;10.30;99.90
19242;DHT22;9755;47.790;9.620;2023-04-08T14:05:24;10.20;99.90
19242;DHT22;9755;47.790;9.620;2023-04-08T14:07:51;10.50;99.90
19242;DHT22;9755;47.790;9.620;2023-04-08T14:10:18;10.60;99.90
19242;DHT22;9755;47.790;9.620;2023-04-08T14:12:45;10.20;99.90
19242;DHT22;9755;47.790;9.620;2023-04-08T14:15:12;9.90;99.90
19242;DHT22;9755;47.790;9.620;2023-04-08T14:17:40;9.70;99.90
19242;DHT22;9755;47.790;9.620;2023-04-08T14:20:07;10.00;99.90
19242;DHT22;9755;47.790;9.620;2023-04-08T14:22:36;10.20;99.90
19242;DHT22;9755;47.790;9.620;2023-04-08T14:25:03;10.10;99.90
19242;DHT22;9755;47.790;9.620;2023-04-08T14:27:31;9.90;99.90
19242;DHT22;9755;47.790;9.620;2023-04-08T14:29:58;10.20;99.90
19242;DHT22;9755;47.790;9.620;2023-04-08T14:32:25;10.40;99.90
19242;DHT22;9755;47.790;9.620;2023-04-08T14:34:52;10.40;99.90
19242;DHT22;9755;47.790;9.620;2023-04-08T14:37:22;10.50;99.90
19242;DHT22;9755;47.790;9.620;2023-04-08T14:39:50;10.30;99.90
19242;DHT22;9755;47.790;9.620;2023-04-08T14:42:17;10.50;99.90
19242;DHT22;9755;47.790;9.620;2023-04-08T14:44:45;10.50;99.90
19242;DHT22;9755;47.790;9.620;2023-04-08T14:47:12;10.70;99.90
19242;DHT22;9755;47.790;9.620;2023-04-08T14:49:40;10.50;99.90
19242;DHT22;9755;47.790;9.620;2023-04-08T14:52:10;10.40;99.90
19242;DHT22;9755;47.790;9.620;2023-04-08T14:54:40;10.40;99.90
19242;DHT22;9755;47.790;9.620;2023-04-08T14:57:10;10.50;99.90
19242;DHT22;9755;47.790;9.620;2023-04-08T14:59:37;10.70;99.90
19242;DHT22;9755;47.790;9.620;2023-04-08T15:02:04;10.50;99.90
19242;DHT22;9755;47.790;9.620;2023-04-08T15:04:31;10.70;99.90
19242;DHT22;9755;47.790;9.620;2023-04-08T15:07:00;10.50;99.90
19242;DHT22;9755;47.790;9.620;2023-04-08T15:09:28;10.30;99.90
19242;DHT22;9755;47.790;9.620;2023-04-08T15:11:58;10.20;99.90
19242;DHT22;9755;47.790;9.620;2023-04-08T15:14:27;10.00;99.90
19242;DHT22;9755;47.790;9.620;2023-04-08T15:16:54;9.70;99.90
19242;DHT22;9755;47.790;9.620;2023-04-08T15:19:21;9.50;99.90
19242;DHT22;9755;47.790;9.620;2023-04-08T15:21:48;9.50;99.90
19242;DHT22;9755;47.790;9.620;2023-04-08T15:24:18;9.60;99.90
19242;DHT22;9755;47.790;9.620;2023-04-08T15:26:45;9.50;99.90
19242;DHT22;9755;47.790;9.620;2023-04-08T15:29:12;9.50;99.90
19242;DHT22;9755;47.790;9.620;2023-04-08T15:31:40;9.40;99.90
19242;DHT22;9755;47.790;9.620;2023-04-08T15:34:07;9.30;99.90
19242;DHT22;9755;47.790;9.620;2023-04-08T15:36:34;9.30;99.90
19242;DHT22;9755;47.790;9.620;2023-04-08T15:39:02;9.40;99.90
19242;DHT22;9755;47.790;9.620;2023-04-08T15:41:29;9.50;99.90
19242;DHT22;9755;47.790;9.620;2023-04-08T15:43:57;9.60;99.90
19242;DHT22;9755;47.790;9.620;2023-04-08T15:46:24;9.70;99.90
19242;DHT22;9755;47.790;9.620;2023-04-08T15:48:52;9.60;99.90
19242;DHT22;9755;47.790;9.620;2023-04-08T15:51:20;9.50;99.90
19242;DHT22;9755;47.790;9.620;2023-04-08T15:53:47;9.50;99.90
19242;DHT22;9755;47.790;9.620;2023-04-08T15:56:15;9.40;99.90
19242;DHT22;9755;47.790;9.620;2023-04-08T15:58:42;9.30;99.90
19242;DHT22;9755;47.790;9.620;2023-04-08T16:01:10;9.30;99.90
19242;DHT22;9755;47.790;9.620;2023-04-08T16:03:38;9.20;99.90
19242;DHT22;9755;47.790;9.620;2023-04-08T16:06:07;9.10;99.90